Glenbrook, CT

2:31 PM EDT op 23 oktober 2014 (GMT -0400)
Waterbury Avenue | Change Station
CLOSE
Current Station
Persoonlijk weerstation
Location: Stamford, CT
Geometrische hoogte: 46 ft
Nabije weerstations

Hoogte 46 ft 41.06 °N, 73.51 °W | Updated 8 seconds ago

Merendeels bewolkt
Merendeels bewolkt
50.0 °F
Voelt als 49 °F
N
3.7
Wind Variabel Wind van ZW
Gusts 9.4 mijl/u

Vandaag
Hoog -- | Laag -- °F
--% Kans op neerslag
Gisteren
Hoog -- | Laag -- °F
Precip. -- inches
7:14 AM 6:01 PM
Afnemende halvemaan, 0% visible
Druk 29.68 inches
Zicht 10.0 mijlen
Wolken Licht bewolkt 1600 ft
Geheel bewolkt 5500 ft
Gevoelstemperatuur 49 °F
Dauwpunt 48 °F
Vochtigheid 94%
Neerslag 0.14 inches
Dikte sneeuw Niet beschikbaar.
UV 1 van de 12
Pollen .10 van de 12
Ozon Goed
Flu Activity Sporadic
METAR KHPN 231756Z 34020G27KT 10SM -RA SCT016 OVC055 09/07 A2967 RMK AO2 PK WND 35030/1739 RAB1657E35B52 SLP049 P0000 60004 T00940072 10100 20089 58008

More Conditions Fewer Conditions

Druk 29.68 inches
Zicht 10.0 mijlen
Wolken Licht bewolkt 1600 ft
Geheel bewolkt 5500 ft
Gevoelstemperatuur 49 °F
Dauwpunt 48 °F
Vochtigheid 94%
Neerslag 0.14 inches
Dikte sneeuw Niet beschikbaar.
UV 1 van de 12
Pollen .10 van de 12
Ozon Goed
Flu Activity Sporadic
METAR KHPN 231756Z 34020G27KT 10SM -RA SCT016 OVC055 09/07 A2967 RMK AO2 PK WND 35030/1739 RAB1657E35B52 SLP049 P0000 60004 T00940072 10100 20089 58008

More Conditions Fewer Conditions

10-Day Weather Forecast

Almanac

Astronomie

Oct. 23, 2014 Opkomst Ondergang
Werkelijke tijd 7:14 AM EDT 6:01 PM EDT
Burgerlijke schemering 6:46 AM EDT 6:29 PM EDT
Nautische schemering 6:14 AM EDT 7:01 PM EDT
Astronomische schemering 5:42 AM EDT 7:33 PM EDT
Maan 6:51 AM EDT 6:01 PM EDT
Golflengte van het zichtbare licht 11h 43m
Daglengte
10h 47m
Tomorrow will be 2m 33s shorter.
Afnemende halvemaan, 0% of the Moon is Illuminated
Vandaag
Afnemende halvemaan
oktober 23
Nieuw
oktober 30
Eerste kwartier
nov 6
Volle maan
nov 14
Laatste kwartier

Extremen vandaag

State Highs State Lows

Community

WunderPhotos

Upload Photos

1,764,338 foto’s ge-upload!

WunderBlogs® & News

Nearby

Luchtkwaliteit

  Luchtkwaliteit LK-index Verontreinigende stof
Gisteren Goed
OZONE
Actueel Goed
OZONE
donderdag Goed
PM2.5
vrijdag Goed
PM2.5

Dikte sneeuw

Station Depth Geometrische hoogte
Er is geen verse sneeuw gerapporteerd.

Aardbevingen

Stad Distance Mag. Time & Date
No recent earthquake activity has been reported nearby.
Minimum magnitude displayed is 2.5.

Watertemperatuur langs de kust

Plaats Temperatuur
Kings Point, NY 59.0 °F
Bridgeport, CT 60.1 °F

Nabije weerstations